Time;durP1;ratioP1;P1;durP2;ratioP2;P2;SDS_P1;SDS_P2;PMS_P1;PMS_P2;Temp;Humidity;BMP_temperature;BMP_pressure;BME280_temperature;BME280_humidity;BME280_pressure;Samples;Min_cycle;Max_cycle;Signal;HPM_P1;HPM_P2
2022/11/08 00:03:32;;;;;;;2.85;0.90;;;12.70;99.90;;;;;;5047076;28;20060;-71
2022/11/08 00:14:10;;;;;;;4.63;1.17;;;12.70;99.90;;;;;;5055170;28;20059;-71
2022/11/08 00:16:35;;;;;;;4.63;0.90;;;12.70;99.90;;;;;;5045886;28;20037;-71
2022/11/08 00:19:01;;;;;;;1.35;0.63;;;12.70;99.90;;;;;;5052158;28;20041;-71
2022/11/08 00:21:26;;;;;;;1.70;0.65;;;12.70;99.90;;;;;;5050618;28;20080;-71
2022/11/08 00:23:53;;;;;;;5.90;0.98;;;12.70;99.90;;;;;;5046852;28;20090;-71
2022/11/08 00:26:18;;;;;;;1.10;0.60;;;12.70;99.90;;;;;;5036532;28;20510;-71
2022/11/08 00:28:44;;;;;;;5.85;0.93;;;12.70;99.90;;;;;;5030698;28;20057;-71
2022/11/08 00:31:10;;;;;;;4.40;0.80;;;12.70;99.90;;;;;;5049075;28;20048;-71
2022/11/08 00:33:36;;;;;;;3.38;0.65;;;12.70;99.90;;;;;;5056218;28;20039;-71
2022/11/08 00:36:02;;;;;;;1.30;0.30;;;12.70;99.90;;;;;;5049470;28;20041;-71
2022/11/08 00:38:28;;;;;;;1.90;0.80;;;12.70;99.90;;;;;;5053432;28;20119;-71
2022/11/08 00:40:53;;;;;;;1.33;0.63;;;12.70;99.90;;;;;;5051062;28;20125;-71
2022/11/08 00:43:20;;;;;;;2.65;1.00;;;12.70;99.90;;;;;;5049783;28;20037;-71
2022/11/08 00:45:45;;;;;;;1.27;0.90;;;12.70;99.90;;;;;;5050170;28;20045;-71
2022/11/08 00:48:11;;;;;;;2.20;0.82;;;12.70;99.90;;;;;;5035002;28;20044;-71
2022/11/08 00:50:40;;;;;;;2.35;0.60;;;12.70;99.90;;;;;;5049079;28;20038;-71
2022/11/08 00:53:05;;;;;;;1.75;0.60;;;12.60;99.90;;;;;;5045831;28;21233;-71
2022/11/08 00:55:31;;;;;;;2.60;0.80;;;12.70;99.90;;;;;;5050459;28;20742;-71
2022/11/08 00:57:56;;;;;;;3.10;0.85;;;12.60;99.90;;;;;;5047610;28;20090;-71
2022/11/08 01:00:22;;;;;;;0.43;0.40;;;12.60;99.90;;;;;;5064047;28;20037;-71
2022/11/08 01:03:17;;;;;;;1.15;0.40;;;12.60;99.90;;;;;;5077259;28;20132;-71
2022/11/08 01:05:36;;;;;;;2.25;0.65;;;12.60;99.90;;;;;;5054616;28;20477;-71
2022/11/08 01:08:02;;;;;;;3.17;0.63;;;12.50;99.90;;;;;;5057412;28;20048;-71
2022/11/08 01:10:27;;;;;;;2.67;0.75;;;12.50;99.90;;;;;;5046423;28;20045;-71
2022/11/08 01:12:53;;;;;;;1.52;0.73;;;12.50;99.90;;;;;;5035823;28;20073;-71
2022/11/08 01:15:18;;;;;;;1.02;0.70;;;12.50;99.90;;;;;;5054265;28;20055;-71
2022/11/08 01:17:44;;;;;;;1.55;0.70;;;12.40;99.90;;;;;;5055862;28;20044;-71
2022/11/08 01:20:10;;;;;;;2.05;0.57;;;12.40;99.90;;;;;;5053978;28;20049;-71
2022/11/08 01:22:35;;;;;;;2.13;0.93;;;12.40;99.90;;;;;;5054686;28;20033;-71
2022/11/08 01:25:01;;;;;;;1.58;0.70;;;12.40;99.90;;;;;;5048575;28;20478;-71
2022/11/08 01:27:27;;;;;;;2.80;1.23;;;12.40;99.90;;;;;;5049319;28;20029;-71
2022/11/08 01:29:52;;;;;;;2.28;0.70;;;12.40;99.90;;;;;;5035421;28;20506;-71
2022/11/08 01:32:18;;;;;;;2.20;0.50;;;12.30;99.90;;;;;;5052136;28;20548;-71
2022/11/08 01:34:43;;;;;;;2.15;0.60;;;12.30;99.90;;;;;;5053567;28;20579;-71
2022/11/08 01:37:09;;;;;;;3.97;0.80;;;12.30;99.90;;;;;;5057757;28;20426;-71
2022/11/08 01:39:34;;;;;;;1.65;0.90;;;12.30;99.90;;;;;;5047719;28;20048;-71
2022/11/08 01:42:00;;;;;;;3.40;0.52;;;12.30;99.90;;;;;;5048382;28;20029;-71
2022/11/08 01:44:25;;;;;;;4.63;0.90;;;12.20;99.90;;;;;;5052325;28;20079;-71
2022/11/08 01:46:51;;;;;;;4.20;0.70;;;12.30;99.90;;;;;;5037618;28;20498;-71
2022/11/08 01:49:20;;;;;;;1.40;0.68;;;12.20;99.90;;;;;;5056536;28;20052;-71
2022/11/08 01:51:58;;;;;;;0.82;0.40;;;12.20;99.90;;;;;;5055034;28;20052;-71
2022/11/08 01:54:44;;;;;;;2.55;0.63;;;12.20;99.90;;;;;;5055269;28;20040;-71
2022/11/08 01:57:15;;;;;;;2.20;0.73;;;12.20;99.90;;;;;;5053258;28;20102;-71
2022/11/08 01:59:44;;;;;;;4.68;0.63;;;12.20;99.90;;;;;;5054001;28;20044;-71
2022/11/08 02:02:10;;;;;;;3.63;0.50;;;12.20;99.90;;;;;;5055389;28;20655;-71
2022/11/08 02:04:38;;;;;;;4.00;0.80;;;12.10;99.90;;;;;;5053101;28;20132;-71
2022/11/08 02:07:06;;;;;;;3.90;0.73;;;12.10;99.90;;;;;;5053956;28;20036;-71
2022/11/08 02:09:34;;;;;;;2.42;0.85;;;12.10;99.90;;;;;;5056590;28;20090;-71
2022/11/08 02:12:00;;;;;;;3.88;0.60;;;12.10;99.90;;;;;;5042187;28;20040;-71
2022/11/08 02:14:26;;;;;;;1.33;0.85;;;12.00;99.90;;;;;;5050363;28;20434;-71
2022/11/08 02:16:52;;;;;;;0.90;0.40;;;12.10;99.90;;;;;;5050720;28;20024;-71
2022/11/08 02:19:50;;;;;;;1.42;0.77;;;12.00;99.90;;;;;;5037112;28;20648;-71
2022/11/08 02:22:25;;;;;;;2.70;0.98;;;12.00;99.90;;;;;;5038416;28;20047;-71
2022/11/08 02:24:51;;;;;;;0.93;0.80;;;12.00;99.90;;;;;;5037185;28;20601;-71
2022/11/08 02:27:17;;;;;;;1.08;0.60;;;12.00;99.90;;;;;;5051028;28;20025;-71
2022/11/08 02:29:42;;;;;;;3.10;1.63;;;12.00;99.90;;;;;;5046224;28;20133;-71
2022/11/08 02:32:10;;;;;;;2.30;0.52;;;12.00;99.90;;;;;;5050335;28;20094;-71
2022/11/08 02:34:41;;;;;;;1.65;0.60;;;11.90;99.90;;;;;;5055662;28;20503;-71
2022/11/08 02:37:07;;;;;;;3.28;0.70;;;11.90;99.90;;;;;;5048846;28;20060;-71
2022/11/08 02:39:33;;;;;;;2.60;1.00;;;11.90;99.90;;;;;;5048129;28;20064;-71
2022/11/08 02:42:00;;;;;;;2.65;0.60;;;11.90;99.90;;;;;;5049056;28;20048;-71
2022/11/08 02:44:25;;;;;;;5.72;1.30;;;11.90;99.90;;;;;;5051790;28;20089;-71
2022/11/08 02:46:51;;;;;;;2.83;0.63;;;11.90;99.90;;;;;;5051668;28;20041;-71
2022/11/08 02:49:17;;;;;;;1.70;0.55;;;11.90;99.90;;;;;;5054663;28;20123;-71
2022/11/08 02:51:42;;;;;;;1.33;0.60;;;11.80;99.90;;;;;;5048692;28;20064;-71
2022/11/08 02:54:08;;;;;;;2.90;1.15;;;11.90;99.90;;;;;;5055111;28;20081;-71
2022/11/08 02:56:33;;;;;;;4.13;0.77;;;11.80;99.90;;;;;;5051683;28;20098;-71
2022/11/08 02:58:59;;;;;;;2.83;0.70;;;11.80;99.90;;;;;;5050779;28;20046;-71
2022/11/08 03:01:24;;;;;;;1.10;0.57;;;11.80;99.90;;;;;;5047573;28;20585;-71
2022/11/08 03:03:50;;;;;;;3.55;0.93;;;11.80;99.90;;;;;;5051036;28;20040;-71
2022/11/08 03:06:16;;;;;;;2.83;1.10;;;11.80;99.90;;;;;;5048369;28;20097;-71
2022/11/08 03:08:41;;;;;;;1.77;0.70;;;11.80;99.90;;;;;;5049779;28;20040;-71
2022/11/08 03:11:07;;;;;;;3.17;0.88;;;11.80;99.90;;;;;;5047288;28;20418;-71
2022/11/08 03:13:33;;;;;;;1.85;0.50;;;11.80;99.90;;;;;;5052240;28;20053;-71
2022/11/08 03:16:04;;;;;;;2.28;0.68;;;11.70;99.90;;;;;;5050177;28;20056;-71
2022/11/08 03:18:30;;;;;;;1.48;0.70;;;11.70;99.90;;;;;;5049256;28;20483;-71
2022/11/08 03:20:57;;;;;;;1.17;0.57;;;11.70;99.90;;;;;;5049492;28;20029;-71
2022/11/08 03:23:23;;;;;;;1.80;0.70;;;11.70;99.90;;;;;;5048556;28;20084;-71
2022/11/08 03:25:48;;;;;;;3.85;0.95;;;11.70;99.90;;;;;;5038926;28;20067;-71
2022/11/08 03:28:14;;;;;;;2.78;1.17;;;11.70;99.90;;;;;;5049433;28;20402;-71
2022/11/08 03:30:39;;;;;;;4.50;0.90;;;11.70;99.90;;;;;;5053306;28;20587;-71
2022/11/08 03:33:05;;;;;;;3.15;0.80;;;11.70;99.90;;;;;;5034839;28;20410;-71
2022/11/08 03:35:31;;;;;;;4.63;1.02;;;11.60;99.90;;;;;;5056208;28;20033;-71
2022/11/08 03:37:57;;;;;;;2.75;0.63;;;11.70;99.90;;;;;;5033706;28;20032;-71
2022/11/08 03:40:24;;;;;;;2.85;0.95;;;11.60;99.90;;;;;;5048153;28;20040;-71
2022/11/08 03:42:49;;;;;;;1.40;0.60;;;11.60;99.90;;;;;;5051342;28;20075;-71
2022/11/08 03:45:16;;;;;;;2.25;0.80;;;11.60;99.90;;;;;;5048835;28;20091;-71
2022/11/08 03:47:43;;;;;;;2.15;0.75;;;11.60;99.90;;;;;;5051628;28;20485;-71
2022/11/08 03:50:10;;;;;;;3.03;0.93;;;11.60;99.90;;;;;;5055880;28;20048;-71
2022/11/08 03:52:43;;;;;;;11.43;1.08;;;11.60;99.90;;;;;;5040909;28;20037;-71
2022/11/08 03:55:10;;;;;;;1.23;0.57;;;11.60;99.90;;;;;;5049322;28;20075;-71
2022/11/08 03:57:37;;;;;;;1.08;0.70;;;11.60;99.90;;;;;;5036325;28;20058;-71
2022/11/08 04:00:04;;;;;;;0.93;0.52;;;11.60;99.90;;;;;;5051155;28;20057;-71
2022/11/08 04:02:29;;;;;;;3.08;0.93;;;11.50;99.90;;;;;;5045785;28;20033;-71
2022/11/08 04:04:55;;;;;;;0.88;0.50;;;11.50;99.90;;;;;;5053418;28;20028;-71
2022/11/08 04:07:21;;;;;;;1.05;0.60;;;11.50;99.90;;;;;;5033155;28;20040;-71
2022/11/08 04:09:46;;;;;;;1.13;0.75;;;11.50;99.90;;;;;;5050562;28;20127;-71
2022/11/08 04:15:14;;;;;;;3.15;0.75;;;11.50;99.90;;;;;;5051917;28;20127;-71
2022/11/08 04:23:17;;;;;;;1.30;0.80;;;11.50;99.90;;;;;;5046626;28;20506;-71
2022/11/08 04:25:43;;;;;;;3.40;0.60;;;11.40;99.90;;;;;;5065923;28;20040;-71
2022/11/08 04:28:09;;;;;;;3.78;1.20;;;11.50;99.90;;;;;;5049113;28;20544;-71
2022/11/08 04:30:35;;;;;;;1.85;0.70;;;11.40;99.90;;;;;;5047677;28;20052;-71
2022/11/08 04:33:05;;;;;;;1.33;0.68;;;11.50;99.90;;;;;;5046931;28;20039;-71
2022/11/08 04:35:31;;;;;;;3.70;0.90;;;11.40;99.90;;;;;;5050626;28;20036;-71
2022/11/08 04:38:01;;;;;;;3.38;0.63;;;11.50;99.90;;;;;;5052050;28;20556;-71
2022/11/08 04:40:28;;;;;;;1.27;0.52;;;11.50;99.90;;;;;;5031257;28;20044;-71
2022/11/08 04:42:54;;;;;;;0.77;0.45;;;11.50;99.90;;;;;;5037837;28;20040;-71
2022/11/08 04:45:20;;;;;;;5.05;0.60;;;11.50;99.90;;;;;;5045347;28;20087;-71
2022/11/08 04:47:46;;;;;;;1.35;0.68;;;11.50;99.90;;;;;;5051132;28;20040;-71
2022/11/08 04:50:12;;;;;;;1.55;0.82;;;11.40;99.90;;;;;;5053537;28;20029;-71
2022/11/08 04:52:38;;;;;;;0.85;0.50;;;11.50;99.90;;;;;;5043687;28;20045;-71
2022/11/08 04:55:03;;;;;;;1.67;0.47;;;11.50;99.90;;;;;;5044527;28;20052;-71
2022/11/08 04:57:29;;;;;;;3.22;0.82;;;11.50;99.90;;;;;;5054028;28;20052;-71
2022/11/08 04:59:55;;;;;;;3.50;0.68;;;11.50;99.90;;;;;;5048537;28;20040;-71
2022/11/08 05:02:20;;;;;;;3.33;1.02;;;11.40;99.90;;;;;;5043937;28;20041;-71
2022/11/08 05:04:46;;;;;;;1.10;0.80;;;11.50;99.90;;;;;;5048324;28;20052;-71
2022/11/08 05:07:11;;;;;;;2.15;0.63;;;11.40;99.90;;;;;;5055110;28;20134;-71
2022/11/08 05:09:37;;;;;;;3.90;1.52;;;11.40;99.90;;;;;;5043821;28;20083;-71
2022/11/08 05:12:02;;;;;;;3.88;0.80;;;11.40;99.90;;;;;;5050935;28;20175;-71
2022/11/08 05:14:28;;;;;;;6.57;0.90;;;11.40;99.90;;;;;;5048845;28;20478;-71
2022/11/08 05:16:53;;;;;;;1.05;0.60;;;11.40;99.90;;;;;;5050381;28;20029;-71
2022/11/08 05:23:22;;;;;;;1.70;0.80;;;11.40;99.90;;;;;;5052340;28;20028;-71
2022/11/08 05:24:49;;;;;;;2.72;0.70;;;11.40;99.90;;;;;;5047633;28;20045;-71
2022/11/08 05:27:14;;;;;;;3.42;0.57;;;11.40;99.90;;;;;;5047451;28;21360;-71
2022/11/08 05:29:40;;;;;;;3.28;1.23;;;11.40;99.90;;;;;;5033741;28;20116;-71
2022/11/08 05:32:05;;;;;;;2.53;0.70;;;11.40;99.90;;;;;;5045378;28;20044;-71
2022/11/08 05:34:31;;;;;;;4.38;0.95;;;11.40;99.90;;;;;;5050726;28;20393;-71
2022/11/08 05:36:57;;;;;;;1.02;0.55;;;11.40;99.90;;;;;;5039271;28;20068;-71
2022/11/08 05:39:22;;;;;;;1.13;0.60;;;11.40;99.90;;;;;;5050558;28;20033;-71
2022/11/08 05:41:48;;;;;;;1.95;0.50;;;11.40;99.90;;;;;;5035081;28;20047;-71
2022/11/08 05:44:13;;;;;;;1.48;0.70;;;11.40;99.90;;;;;;5044325;28;20051;-71
2022/11/08 05:46:39;;;;;;;1.92;1.35;;;11.40;99.90;;;;;;5064904;28;20121;-71
2022/11/08 05:49:04;;;;;;;1.25;0.50;;;11.40;99.90;;;;;;5053605;28;20032;-71
2022/11/08 05:51:31;;;;;;;1.65;0.75;;;11.40;99.90;;;;;;5057897;28;20520;-71
2022/11/08 05:53:56;;;;;;;1.98;0.55;;;11.40;99.90;;;;;;5035903;28;20033;-71
2022/11/08 05:56:22;;;;;;;0.60;0.40;;;11.40;99.90;;;;;;5038405;28;20047;-71
2022/11/08 05:58:48;;;;;;;4.88;0.60;;;11.30;99.90;;;;;;5051719;28;20021;-71
2022/11/08 06:01:16;;;;;;;2.38;0.43;;;11.30;99.90;;;;;;5054495;28;20056;-71
2022/11/08 06:03:42;;;;;;;0.90;0.50;;;11.30;99.90;;;;;;5058406;28;20182;-71
2022/11/08 06:06:12;;;;;;;0.98;0.60;;;11.30;99.90;;;;;;5054970;28;20503;-71
2022/11/08 06:08:38;;;;;;;1.23;1.13;;;11.30;99.90;;;;;;5052295;28;20036;-71
2022/11/08 06:11:09;;;;;;;1.58;0.85;;;11.30;99.90;;;;;;5055780;28;20057;-71
2022/11/08 06:13:35;;;;;;;1.65;0.50;;;11.30;99.90;;;;;;5034722;28;20052;-71
2022/11/08 06:16:02;;;;;;;4.88;0.70;;;11.30;99.90;;;;;;5053753;28;20037;-71
2022/11/08 06:18:29;;;;;;;2.55;0.80;;;11.20;99.90;;;;;;5051940;28;20163;-71
2022/11/08 06:20:57;;;;;;;2.40;1.25;;;11.20;99.90;;;;;;5059127;28;20051;-71
2022/11/08 06:23:22;;;;;;;1.15;0.60;;;11.20;99.90;;;;;;5046962;28;20045;-71
2022/11/08 06:25:48;;;;;;;4.65;0.70;;;11.20;99.90;;;;;;5058446;28;20516;-71
2022/11/08 06:28:14;;;;;;;0.85;0.52;;;11.20;99.90;;;;;;5051394;28;20044;-71
2022/11/08 06:30:40;;;;;;;2.00;0.65;;;11.20;99.90;;;;;;5051200;28;20444;-71
2022/11/08 06:33:05;;;;;;;3.47;0.95;;;11.20;99.90;;;;;;5050564;28;20044;-71
2022/11/08 06:35:31;;;;;;;2.20;0.65;;;11.20;99.90;;;;;;5048488;28;20048;-71
2022/11/08 06:37:56;;;;;;;5.72;0.68;;;11.20;99.90;;;;;;5051504;28;20029;-71
2022/11/08 06:40:22;;;;;;;1.55;0.70;;;11.20;99.90;;;;;;5048218;28;20136;-71
2022/11/08 06:42:48;;;;;;;2.35;1.17;;;11.20;99.90;;;;;;5032443;28;20068;-71
2022/11/08 06:45:13;;;;;;;2.22;0.70;;;11.20;99.90;;;;;;5032828;28;20661;-71
2022/11/08 06:47:39;;;;;;;3.40;0.98;;;11.20;99.90;;;;;;5040965;28;20078;-71
2022/11/08 06:50:05;;;;;;;1.10;0.60;;;11.20;99.90;;;;;;5053336;28;20080;-71
2022/11/08 06:52:31;;;;;;;1.02;0.60;;;11.10;99.90;;;;;;5057833;28;20730;-71
2022/11/08 06:54:56;;;;;;;2.15;0.52;;;11.20;99.90;;;;;;5047002;28;20041;-71
2022/11/08 06:57:22;;;;;;;1.23;0.60;;;11.10;99.90;;;;;;5054918;28;20048;-71
2022/11/08 06:59:48;;;;;;;3.63;0.88;;;11.20;99.90;;;;;;5046242;28;20583;-71
2022/11/08 07:02:14;;;;;;;1.65;0.50;;;11.20;99.90;;;;;;5060309;28;20682;-71
2022/11/08 07:04:39;;;;;;;1.85;1.08;;;11.20;99.90;;;;;;5050695;28;20060;-71
2022/11/08 07:07:05;;;;;;;1.40;0.60;;;11.20;99.90;;;;;;5072314;28;20449;-71
2022/11/08 07:09:30;;;;;;;2.35;0.70;;;11.20;99.90;;;;;;5049919;28;20059;-71
2022/11/08 07:11:56;;;;;;;2.10;1.00;;;11.20;99.90;;;;;;5029984;28;20048;-71
2022/11/08 07:14:22;;;;;;;1.05;0.50;;;11.20;99.90;;;;;;5047364;28;20048;-71
2022/11/08 07:16:47;;;;;;;2.25;0.80;;;11.20;99.90;;;;;;5046052;28;20094;-71
2022/11/08 07:19:13;;;;;;;3.45;0.63;;;11.30;99.90;;;;;;5052660;28;20040;-69
2022/11/08 07:21:39;;;;;;;1.83;1.00;;;11.30;99.90;;;;;;5053616;28;20040;-71
2022/11/08 07:24:05;;;;;;;2.05;1.05;;;11.30;99.90;;;;;;5047354;28;20106;-71
2022/11/08 07:26:30;;;;;;;1.58;0.75;;;11.30;99.90;;;;;;5068894;28;20041;-71
2022/11/08 07:28:56;;;;;;;3.42;1.05;;;11.30;99.90;;;;;;5045777;28;20044;-71
2022/11/08 07:31:22;;;;;;;2.28;1.38;;;11.30;99.90;;;;;;5045894;28;20401;-71
2022/11/08 07:33:48;;;;;;;1.83;1.15;;;11.30;99.90;;;;;;5030498;28;20048;-71
2022/11/08 07:36:14;;;;;;;7.22;1.25;;;11.30;99.90;;;;;;5030325;28;20037;-71
2022/11/08 07:38:40;;;;;;;0.93;0.50;;;11.30;99.90;;;;;;5053187;28;20638;-71
2022/11/08 07:41:05;;;;;;;2.50;0.70;;;11.30;99.90;;;;;;5046362;28;20036;-71
2022/11/08 07:43:31;;;;;;;3.35;0.88;;;11.40;99.90;;;;;;5044555;28;20094;-71
2022/11/08 07:45:58;;;;;;;2.55;0.90;;;11.40;99.90;;;;;;5038252;28;20037;-71
2022/11/08 07:48:26;;;;;;;2.72;1.05;;;11.40;99.90;;;;;;5038285;28;20049;-71
2022/11/08 07:50:51;;;;;;;1.73;0.80;;;11.40;99.90;;;;;;5049634;28;20123;-71
2022/11/08 07:53:17;;;;;;;4.35;1.17;;;11.40;99.90;;;;;;5038571;28;20123;-70
2022/11/08 07:55:44;;;;;;;3.20;0.52;;;11.40;99.90;;;;;;5048377;28;20036;-70
2022/11/08 07:58:10;;;;;;;1.20;0.88;;;11.40;99.90;;;;;;5027675;28;20040;-70
2022/11/08 08:00:38;;;;;;;1.58;0.68;;;11.40;99.90;;;;;;5046784;28;20529;-70
2022/11/08 08:03:06;;;;;;;1.75;0.77;;;11.50;99.90;;;;;;5063875;28;20230;-71
2022/11/08 08:05:34;;;;;;;2.08;0.82;;;11.50;99.90;;;;;;5041895;28;20045;-71
2022/11/08 08:08:01;;;;;;;3.35;1.17;;;11.50;99.90;;;;;;5045425;28;20029;-71
2022/11/08 08:10:27;;;;;;;0.70;0.50;;;11.50;99.90;;;;;;5047669;28;20514;-71
2022/11/08 08:12:56;;;;;;;1.70;0.85;;;11.60;99.90;;;;;;5046982;28;20403;-71
2022/11/08 08:15:23;;;;;;;2.15;0.73;;;11.60;99.90;;;;;;5052408;28;20074;-71
2022/11/08 08:17:48;;;;;;;0.75;0.43;;;11.60;99.90;;;;;;5047500;28;20474;-71
2022/11/08 08:20:14;;;;;;;4.40;1.00;;;11.60;99.90;;;;;;5043122;28;20055;-71
2022/11/08 08:22:48;;;;;;;1.35;0.50;;;11.70;99.90;;;;;;5045941;28;20529;-71
2022/11/08 08:25:14;;;;;;;2.90;0.90;;;11.70;99.90;;;;;;5044119;28;20040;-71
2022/11/08 08:27:52;;;;;;;2.15;0.57;;;11.80;99.90;;;;;;5047004;28;20032;-72
2022/11/08 08:30:19;;;;;;;2.78;0.63;;;11.80;99.90;;;;;;5043637;28;20056;-71
2022/11/08 08:32:46;;;;;;;2.22;0.95;;;11.80;99.90;;;;;;5046867;28;20037;-71
2022/11/08 08:35:12;;;;;;;3.00;0.73;;;11.90;99.90;;;;;;5044345;28;20546;-71
2022/11/08 08:37:38;;;;;;;3.25;0.82;;;11.90;99.90;;;;;;5046987;28;20037;-71
2022/11/08 08:40:04;;;;;;;2.38;0.73;;;11.90;99.90;;;;;;5043476;28;20155;-71
2022/11/08 08:42:32;;;;;;;1.80;0.90;;;11.90;99.90;;;;;;5045640;28;20078;-71
2022/11/08 08:44:58;;;;;;;0.80;0.60;;;11.90;99.90;;;;;;5045870;28;20049;-71
2022/11/08 08:47:23;;;;;;;1.85;0.60;;;12.00;99.90;;;;;;5048757;28;20045;-71
2022/11/08 08:49:49;;;;;;;1.95;0.98;;;12.00;99.90;;;;;;5064768;28;20094;-71
2022/11/08 08:52:14;;;;;;;2.22;0.90;;;12.00;99.90;;;;;;5061165;28;20033;-71
2022/11/08 08:54:40;;;;;;;2.97;0.70;;;12.10;99.90;;;;;;5028640;28;20482;-71
2022/11/08 08:57:06;;;;;;;1.55;0.68;;;12.10;99.90;;;;;;5046857;28;20388;-71
2022/11/08 08:59:31;;;;;;;1.08;0.70;;;12.10;99.90;;;;;;5023275;28;20485;-71
2022/11/08 09:01:58;;;;;;;1.80;0.63;;;12.20;99.90;;;;;;5048891;28;20064;-71
2022/11/08 09:04:24;;;;;;;1.50;0.65;;;12.20;99.90;;;;;;5046824;28;20040;-71
2022/11/08 09:06:50;;;;;;;3.10;0.70;;;12.20;99.90;;;;;;5043441;28;20075;-71
2022/11/08 09:09:15;;;;;;;0.93;0.47;;;12.30;99.90;;;;;;5046637;28;20052;-71
2022/11/08 09:11:41;;;;;;;2.25;0.52;;;12.30;99.90;;;;;;5053175;28;20040;-71
2022/11/08 09:14:06;;;;;;;1.75;0.50;;;12.30;99.90;;;;;;5062920;28;21114;-71
2022/11/08 09:16:32;;;;;;;1.58;0.57;;;12.40;99.90;;;;;;5049085;28;20025;-71
2022/11/08 09:18:58;;;;;;;0.77;0.30;;;12.40;99.90;;;;;;5042876;28;20063;-71
2022/11/08 09:21:23;;;;;;;3.55;0.47;;;12.50;99.90;;;;;;5038661;28;20079;-71
2022/11/08 09:23:49;;;;;;;1.05;0.52;;;12.50;99.90;;;;;;5054929;28;20040;-71
2022/11/08 09:26:15;;;;;;;2.40;1.30;;;12.60;99.90;;;;;;5066377;28;20228;-71
2022/11/08 09:28:40;;;;;;;1.17;0.68;;;12.60;99.90;;;;;;5053976;28;20041;-71
2022/11/08 09:31:09;;;;;;;1.20;0.60;;;12.60;99.90;;;;;;5044168;28;20566;-71
2022/11/08 09:33:35;;;;;;;2.03;0.85;;;12.60;99.90;;;;;;5050162;28;20513;-71
2022/11/08 09:36:02;;;;;;;2.58;0.65;;;12.70;99.90;;;;;;5031652;28;20041;-71
2022/11/08 09:38:29;;;;;;;1.15;0.65;;;12.80;99.90;;;;;;5047324;28;20131;-71
2022/11/08 09:41:25;;;;;;;1.52;0.70;;;12.80;99.90;;;;;;5042150;28;20344;-71
2022/11/08 09:44:18;;;;;;;1.00;0.47;;;12.80;99.90;;;;;;5045217;28;20045;-71
2022/11/08 09:46:56;;;;;;;1.25;0.50;;;12.90;99.90;;;;;;5033056;28;20144;-71
2022/11/08 09:49:29;;;;;;;1.48;0.80;;;12.90;99.90;;;;;;5048491;28;20041;-71
2022/11/08 09:51:56;;;;;;;1.20;0.60;;;12.90;99.90;;;;;;5031137;28;20053;-71
2022/11/08 09:54:30;;;;;;;2.47;0.57;;;13.00;99.90;;;;;;5043132;28;20422;-71
2022/11/08 09:56:56;;;;;;;2.67;0.70;;;13.00;99.90;;;;;;5052272;28;20048;-71
2022/11/08 09:59:36;;;;;;;1.23;0.55;;;13.00;99.90;;;;;;5055795;28;20051;-71
2022/11/08 10:02:15;;;;;;;3.15;0.60;;;13.00;99.90;;;;;;5054697;28;20526;-72
2022/11/08 10:04:40;;;;;;;1.08;0.52;;;13.00;99.90;;;;;;5059784;28;20394;-72
2022/11/08 10:07:40;;;;;;;1.00;0.70;;;13.00;99.90;;;;;;5052972;28;20036;-71
2022/11/08 10:10:27;;;;;;;1.33;0.60;;;13.10;99.90;;;;;;5058938;28;20045;-71
2022/11/08 10:13:17;;;;;;;2.33;0.75;;;13.10;99.90;;;;;;5059103;28;20060;-71
2022/11/08 10:16:09;;;;;;;2.22;0.60;;;13.10;99.90;;;;;;5048621;28;20436;-71
2022/11/08 10:18:54;;;;;;;1.17;0.57;;;13.20;99.90;;;;;;5051119;28;20041;-72
2022/11/08 10:21:36;;;;;;;2.15;0.73;;;13.20;99.90;;;;;;5056234;28;21199;-71
2022/11/08 10:24:10;;;;;;;1.85;1.05;;;13.20;99.90;;;;;;5048228;28;20049;-71
2022/11/08 10:26:41;;;;;;;1.35;0.52;;;13.20;99.90;;;;;;5049600;28;20106;-71
2022/11/08 10:29:12;;;;;;;1.60;0.40;;;13.20;99.90;;;;;;5050508;28;20052;-71
2022/11/08 10:31:39;;;;;;;2.45;0.75;;;13.20;99.90;;;;;;5050805;28;20497;-71
2022/11/08 10:34:14;;;;;;;1.77;0.73;;;13.30;99.90;;;;;;5053422;28;20522;-71
2022/11/08 10:36:45;;;;;;;3.13;0.93;;;13.30;99.90;;;;;;5050360;28;20037;-71
2022/11/08 10:39:16;;;;;;;1.65;0.68;;;13.30;99.90;;;;;;5047922;28;20051;-71
2022/11/08 10:42:00;;;;;;;0.55;0.32;;;13.30;99.90;;;;;;5051324;28;20040;-71
2022/11/08 10:44:27;;;;;;;1.70;0.65;;;13.30;99.90;;;;;;5051073;28;20094;-71
2022/11/08 10:46:56;;;;;;;2.42;0.65;;;13.40;99.90;;;;;;5029643;28;20041;-71
2022/11/08 10:49:30;;;;;;;1.15;0.50;;;13.40;99.90;;;;;;5052582;28;20048;-71
2022/11/08 10:52:11;;;;;;;1.38;0.60;;;13.40;99.90;;;;;;5053375;28;20036;-70
2022/11/08 10:54:49;;;;;;;1.83;0.80;;;13.40;99.90;;;;;;5059492;28;20280;-72
2022/11/08 10:57:30;;;;;;;1.52;0.60;;;13.40;99.90;;;;;;5055061;28;20028;-71
2022/11/08 11:00:13;;;;;;;1.85;0.55;;;13.30;99.90;;;;;;5053336;28;20048;-71
2022/11/08 11:02:39;;;;;;;1.00;0.65;;;13.30;99.90;;;;;;5048727;28;20109;-72
2022/11/08 11:05:35;;;;;;;2.25;0.77;;;13.30;99.90;;;;;;5036479;28;20490;-72
2022/11/08 11:08:03;;;;;;;1.48;0.70;;;13.30;99.90;;;;;;5060213;28;20048;-72
2022/11/08 11:10:38;;;;;;;2.75;0.70;;;13.20;99.90;;;;;;5052999;28;20072;-71
2022/11/08 11:13:17;;;;;;;0.82;0.50;;;13.20;99.90;;;;;;5053169;28;20084;-71
2022/11/08 11:15:56;;;;;;;1.13;0.70;;;13.20;99.90;;;;;;5033059;28;20041;-71
2022/11/08 11:18:38;;;;;;;0.35;0.30;;;13.20;99.90;;;;;;5029034;28;20072;-71
2022/11/08 11:21:17;;;;;;;0.95;0.55;;;13.30;99.90;;;;;;5063587;28;20036;-71
2022/11/08 11:23:45;;;;;;;1.40;0.60;;;13.30;99.90;;;;;;5045106;28;20128;-71
2022/11/08 11:26:19;;;;;;;0.77;0.55;;;13.30;99.90;;;;;;5050135;28;20049;-71
2022/11/08 11:29:03;;;;;;;1.48;0.57;;;13.30;99.90;;;;;;5066589;28;20040;-71
2022/11/08 11:31:37;;;;;;;2.08;0.52;;;13.40;99.90;;;;;;5047772;28;20060;-71
2022/11/08 11:34:18;;;;;;;1.15;0.47;;;13.50;99.90;;;;;;5053015;28;20043;-71
2022/11/08 11:36:47;;;;;;;0.82;0.40;;;13.40;99.90;;;;;;5048250;28;20036;-71
2022/11/08 11:39:28;;;;;;;0.90;0.52;;;13.50;99.90;;;;;;5054796;28;20037;-72
2022/11/08 11:42:20;;;;;;;2.63;0.77;;;13.50;99.90;;;;;;5043694;28;20072;-71
2022/11/08 11:45:14;;;;;;;1.58;0.70;;;13.50;99.90;;;;;;5049851;28;20048;-71
2022/11/08 11:47:52;;;;;;;0.80;0.40;;;13.50;99.90;;;;;;5047300;28;20048;-71
2022/11/08 11:50:20;;;;;;;1.20;0.63;;;13.60;99.90;;;;;;5035554;28;20118;-71
2022/11/08 11:52:46;;;;;;;0.73;0.30;;;13.60;99.90;;;;;;5054344;28;20041;-71
2022/11/08 11:55:14;;;;;;;1.52;0.70;;;13.60;99.90;;;;;;5055056;28;20032;-71
2022/11/08 11:58:09;;;;;;;1.10;0.55;;;13.60;99.90;;;;;;5048142;28;20841;-71
2022/11/08 12:00:41;;;;;;;2.15;0.93;;;13.70;99.90;;;;;;5050042;28;20382;-71
2022/11/08 12:03:16;;;;;;;3.63;0.70;;;13.70;99.90;;;;;;5062111;28;20440;-71
2022/11/08 12:05:58;;;;;;;;;;;13.70;99.90;;;;;;5049145;28;20040;-71
2022/11/08 12:08:33;;;;;;;2.67;0.80;;;13.80;99.90;;;;;;5050211;28;20378;-71
2022/11/08 12:11:42;;;;;;;1.50;0.80;;;13.80;99.90;;;;;;5050879;28;20061;-71
2022/11/08 12:14:33;;;;;;;0.93;0.50;;;13.80;99.90;;;;;;5028424;28;20529;-71
2022/11/08 12:17:11;;;;;;;1.80;0.88;;;13.80;99.90;;;;;;5048350;28;20048;-71
2022/11/08 12:20:05;;;;;;;4.15;0.88;;;13.80;99.90;;;;;;5048847;28;20045;-71
2022/11/08 12:22:46;;;;;;;1.90;1.00;;;13.80;99.90;;;;;;5056681;28;20080;-71
2022/11/08 12:25:29;;;;;;;0.82;0.38;;;13.80;99.90;;;;;;5050742;28;20039;-71
2022/11/08 12:28:19;;;;;;;1.95;0.60;;;13.80;99.90;;;;;;5026390;28;20068;-71
2022/11/08 12:31:00;;;;;;;1.40;0.63;;;13.80;99.90;;;;;;5055624;28;20041;-71
2022/11/08 12:33:38;;;;;;;3.15;0.50;;;13.80;99.90;;;;;;5050028;28;20506;-71
2022/11/08 12:36:15;;;;;;;1.38;0.65;;;13.80;99.90;;;;;;5047829;28;20359;-71
2022/11/08 12:39:22;;;;;;;0.57;0.35;;;13.80;99.90;;;;;;5053595;28;20483;-71
2022/11/08 12:42:13;;;;;;;1.88;0.40;;;13.80;99.90;;;;;;4995423;28;20087;-71
2022/11/08 12:44:47;;;;;;;2.15;0.68;;;13.80;99.90;;;;;;4993274;28;20085;-71
2022/11/08 12:47:47;;;;;;;3.58;0.82;;;13.80;99.90;;;;;;5029824;28;20473;-71
2022/11/08 12:50:29;;;;;;;1.52;0.55;;;13.80;99.90;;;;;;5051275;28;20566;-71
2022/11/08 12:53:30;;;;;;;1.23;0.70;;;13.80;99.90;;;;;;5043194;28;21643;-71
2022/11/08 12:55:57;;;;;;;1.80;0.65;;;13.80;99.90;;;;;;5058848;28;20080;-71
2022/11/08 12:58:38;;;;;;;1.10;0.32;;;13.80;99.90;;;;;;5070632;28;20025;-72
2022/11/08 13:01:15;;;;;;;3.47;0.60;;;13.80;99.90;;;;;;5074187;28;20118;-71
2022/11/08 13:03:44;;;;;;;0.95;0.60;;;13.80;99.90;;;;;;5048875;28;21766;-71
2022/11/08 13:06:10;;;;;;;1.05;0.50;;;13.80;99.90;;;;;;5052279;28;20561;-71
2022/11/08 13:09:07;;;;;;;3.72;0.65;;;13.80;99.90;;;;;;5052188;28;20040;-71
2022/11/08 13:12:00;;;;;;;0.95;0.45;;;13.80;99.90;;;;;;5038563;28;20049;-71
2022/11/08 13:14:26;;;;;;;0.77;0.55;;;13.70;99.90;;;;;;5053102;28;20489;-71
2022/11/08 13:17:21;;;;;;;4.40;0.70;;;13.70;99.90;;;;;;5051440;28;20036;-71
2022/11/08 13:19:47;;;;;;;4.22;0.63;;;13.70;99.90;;;;;;5043964;28;20044;-71
2022/11/08 13:22:43;;;;;;;1.08;0.60;;;13.70;99.90;;;;;;5044905;28;20166;-71
2022/11/08 13:25:11;;;;;;;1.02;0.50;;;13.70;99.90;;;;;;5023087;28;20126;-71